Time;durP1;ratioP1;P1;durP2;ratioP2;P2;SDS_P1;SDS_P2;PMS_P1;PMS_P2;Temp;Humidity;BMP_temperature;BMP_pressure;BME280_temperature;BME280_humidity;BME280_pressure;Samples;Min_cycle;Max_cycle;Signal;HPM_P1;HPM_P2
2022/01/20 00:02:37;;;;;;;139.65;61.22;;;;;;;3.74;100.00;101193.38;4936686;29;21210;-91
2022/01/20 00:27:26;;;;;;;144.60;65.88;;;;;;;3.55;100.00;101170.97;4899246;29;20044;-82
2022/01/20 00:32:34;;;;;;;163.77;71.53;;;;;;;3.19;100.00;101177.78;4897128;29;20402;-81
2022/01/20 00:37:31;;;;;;;165.85;72.07;;;;;;;3.26;100.00;101164.19;4881634;29;20123;-84
2022/01/20 00:39:58;;;;;;;157.60;71.53;;;;;;;3.36;100.00;101164.44;4898172;29;20032;-84
2022/01/20 00:42:25;;;;;;;153.57;69.43;;;;;;;3.37;100.00;101172.22;4882519;29;20056;-84
2022/01/20 00:44:51;;;;;;;153.07;70.65;;;;;;;3.17;100.00;101162.19;4902610;29;20039;-84
2022/01/20 00:47:18;;;;;;;169.23;72.82;;;;;;;3.14;100.00;101159.75;4894588;29;21245;-82
2022/01/20 00:49:45;;;;;;;159.63;69.40;;;;;;;3.31;100.00;101162.13;4897702;29;20024;-84
2022/01/20 00:52:10;;;;;;;170.90;75.25;;;;;;;3.23;100.00;101169.63;4890137;29;20080;-88
2022/01/20 00:54:36;;;;;;;166.65;71.43;;;;;;;3.23;100.00;101171.41;4906420;29;20044;-88
2022/01/20 00:57:03;;;;;;;164.43;72.78;;;;;;;3.16;100.00;101173.59;4890202;29;20060;-90
2022/01/20 00:59:30;;;;;;;167.40;71.45;;;;;;;3.17;100.00;101164.81;4906366;29;20103;-87
2022/01/20 01:02:03;;;;;;;164.20;72.10;;;;;;;3.22;100.00;101167.94;4870259;29;20052;-89
2022/01/20 01:04:29;;;;;;;161.15;72.20;;;;;;;3.23;100.00;101174.88;4904130;29;20040;-84
2022/01/20 01:09:48;;;;;;;166.20;73.00;;;;;;;3.59;100.00;101172.47;4932883;26;20063;-90
2022/01/20 01:12:21;;;;;;;156.38;69.55;;;;;;;3.80;100.00;101174.59;4929649;29;20035;-88
2022/01/20 01:14:51;;;;;;;147.23;68.35;;;;;;;3.74;100.00;101169.78;4930365;29;20036;-89
2022/01/20 01:22:31;;;;;;;145.80;66.32;;;;;;;3.96;100.00;101165.59;4944356;29;20047;-87
2022/01/20 01:25:07;;;;;;;141.32;67.15;;;;;;;3.88;100.00;101167.88;4928697;29;20043;-90
2022/01/20 01:27:56;;;;;;;147.68;66.28;;;;;;;3.85;100.00;101167.25;4946046;29;20048;-88
2022/01/20 01:33:10;;;;;;;159.73;70.15;;;;;;;3.63;100.00;101139.88;4971003;23;20127;-83
2022/01/20 01:35:40;;;;;;;152.02;70.18;;;;;;;3.52;100.00;101138.91;4985513;23;20035;-84
2022/01/20 01:40:37;;;;;;;145.20;68.13;;;;;;;3.45;100.00;101142.84;4953596;28;20057;-86
2022/01/20 01:43:10;;;;;;;143.65;65.28;;;;;;;3.39;100.00;101140.66;4947236;29;20059;-88
2022/01/20 01:45:41;;;;;;;157.07;71.57;;;;;;;3.19;100.00;101139.34;4944800;29;20039;-85
2022/01/20 01:48:11;;;;;;;160.38;72.25;;;;;;;3.15;100.00;101124.75;4950998;29;20461;-91
2022/01/20 01:50:38;;;;;;;161.75;70.57;;;;;;;3.27;100.00;101131.84;4951204;29;20063;-88
2022/01/20 01:53:06;;;;;;;167.90;73.50;;;;;;;3.26;100.00;101122.28;4952444;29;20047;-88
2022/01/20 01:55:35;;;;;;;152.25;68.70;;;;;;;3.44;100.00;101123.72;4967080;29;20023;-88
2022/01/20 01:58:01;;;;;;;152.85;68.03;;;;;;;3.55;100.00;101123.81;4949863;28;20043;-87
2022/01/20 02:00:30;;;;;;;149.10;69.13;;;;;;;3.48;100.00;101119.09;4945426;29;20070;-87
2022/01/20 02:03:00;;;;;;;151.85;68.57;;;;;;;3.38;100.00;101118.03;4946041;29;20074;-87
2022/01/20 02:05:49;;;;;;;165.45;70.03;;;;;;;3.50;100.00;101109.34;4944872;29;20043;-88
2022/01/20 02:08:33;;;;;;;159.82;70.53;;;;;;;3.25;100.00;101107.50;4946018;29;20082;-85
2022/01/20 02:19:18;;;;;;;146.32;65.82;;;;;;;3.63;100.00;101103.19;4947444;29;20042;-90
2022/01/20 02:21:52;;;;;;;149.02;65.65;;;;;;;3.49;100.00;101100.66;4963713;29;20397;-88
2022/01/20 02:24:21;;;;;;;153.98;68.20;;;;;;;3.71;100.00;101091.34;4947885;29;20043;-87
2022/01/20 02:26:47;;;;;;;150.73;64.07;;;;;;;3.57;100.00;101076.56;4947979;29;20054;-89
2022/01/20 02:29:19;;;;;;;144.77;65.00;;;;;;;3.32;100.00;101093.06;4928577;29;20066;-85
2022/01/20 02:31:46;;;;;;;146.98;65.95;;;;;;;3.27;100.00;101097.78;4943768;29;20038;-89
2022/01/20 02:34:13;;;;;;;150.27;66.32;;;;;;;3.27;100.00;101084.69;4960608;29;20039;-86
2022/01/20 02:36:45;;;;;;;165.07;69.07;;;;;;;3.20;100.00;101085.19;4943466;29;20043;-87
2022/01/20 02:39:29;;;;;;;;;;;;;;;3.19;100.00;101084.34;4943274;29;20503;-88
2022/01/20 02:44:59;;;;;;;140.95;62.00;;;;;;;3.57;100.00;101106.22;4961707;29;19918;-89
2022/01/20 02:47:29;;;;;;;142.02;64.32;;;;;;;3.46;100.00;101102.63;4957545;29;20098;-88
2022/01/20 02:49:55;;;;;;;144.75;64.18;;;;;;;3.42;100.00;101095.91;4966119;29;20031;-90
2022/01/20 02:52:23;;;;;;;126.40;61.20;;;;;;;3.29;100.00;101106.38;4931314;29;20474;-89
2022/01/20 02:54:51;;;;;;;133.82;63.90;;;;;;;3.25;100.00;101112.75;4945395;29;20062;-85
2022/01/20 02:57:18;;;;;;;125.60;61.28;;;;;;;3.17;100.00;101112.44;4943240;29;20039;-86
2022/01/20 02:59:43;;;;;;;132.75;63.70;;;;;;;2.98;100.00;101111.94;4927824;29;20040;-89
2022/01/20 03:02:09;;;;;;;121.30;62.60;;;;;;;2.97;100.00;101105.03;4930803;29;20038;-88
2022/01/20 03:04:36;;;;;;;122.00;63.10;;;;;;;3.17;100.00;101101.94;4957557;29;20039;-88
2022/01/20 03:07:06;;;;;;;114.50;60.17;;;;;;;3.21;100.00;101092.09;4929600;29;20531;-87
2022/01/20 03:09:32;;;;;;;114.15;61.25;;;;;;;3.20;100.00;101093.03;4946243;29;20429;-90
2022/01/20 03:12:01;;;;;;;114.75;59.17;;;;;;;3.08;100.00;101087.66;4927663;29;20039;-88
2022/01/20 03:14:33;;;;;;;112.60;59.15;;;;;;;3.15;100.00;101088.09;4963574;29;20027;-88
2022/01/20 03:16:59;;;;;;;111.47;60.70;;;;;;;3.01;100.00;101090.81;4946781;29;20560;-88
2022/01/20 03:19:25;;;;;;;121.65;62.80;;;;;;;2.87;100.00;101083.00;4929650;29;20039;-86
2022/01/20 03:21:51;;;;;;;108.15;58.70;;;;;;;2.84;100.00;101075.34;4946573;29;20043;-87
2022/01/20 03:24:17;;;;;;;109.05;59.15;;;;;;;2.69;100.00;101078.94;4930340;29;20484;-87
2022/01/20 03:26:43;;;;;;;101.65;57.50;;;;;;;2.62;100.00;101069.81;4944740;29;20035;-88
2022/01/20 03:29:18;;;;;;;103.20;56.47;;;;;;;2.85;100.00;101058.72;4944703;29;20047;-88
2022/01/20 03:31:44;;;;;;;100.32;53.75;;;;;;;2.69;100.00;101063.22;4963551;29;20043;-85
2022/01/20 03:34:13;;;;;;;98.20;54.13;;;;;;;2.64;100.00;101066.16;4960865;29;20062;-87
2022/01/20 03:36:44;;;;;;;93.43;52.40;;;;;;;2.74;100.00;101064.63;4944433;29;20035;-85
2022/01/20 03:39:16;;;;;;;89.63;50.00;;;;;;;2.47;100.00;101056.78;4944559;29;20055;-84
2022/01/20 03:41:44;;;;;;;89.50;50.67;;;;;;;2.52;100.00;101056.47;4932207;29;20039;-90
2022/01/20 03:44:34;;;;;;;80.00;48.00;;;;;;;2.51;100.00;101063.50;4933086;29;20477;-87
2022/01/20 03:47:07;;;;;;;87.28;51.55;;;;;;;2.54;100.00;101067.69;4968186;29;20042;-86
2022/01/20 03:49:50;;;;;;;79.45;46.88;;;;;;;2.74;100.00;101062.03;4975798;29;20043;-85
2022/01/20 03:52:19;;;;;;;86.53;46.83;;;;;;;2.73;100.00;101070.78;4960567;29;20035;-87
2022/01/20 03:54:45;;;;;;;79.30;46.22;;;;;;;2.94;100.00;101063.34;4952595;29;20031;-86
2022/01/20 03:57:31;;;;;;;82.03;46.45;;;;;;;3.03;100.00;101057.50;4958063;28;20527;-89
2022/01/20 04:00:18;;;;;;;81.55;46.95;;;;;;;2.77;100.00;101068.81;4962478;29;20049;-88
2022/01/20 04:02:52;;;;;;;85.65;47.40;;;;;;;2.88;100.00;101074.22;4942430;29;20119;-88
2022/01/20 04:05:34;;;;;;;79.78;47.17;;;;;;;2.53;100.00;101073.84;4961457;29;20489;-89
2022/01/20 04:08:15;;;;;;;86.78;49.55;;;;;;;2.40;100.00;101065.94;4932367;28;20047;-88
2022/01/20 04:10:41;;;;;;;86.45;50.35;;;;;;;2.28;100.00;101056.25;4963602;29;20050;-88
2022/01/20 04:13:14;;;;;;;90.82;50.83;;;;;;;2.26;100.00;101050.25;4963437;29;20050;-88
2022/01/20 04:15:41;;;;;;;87.57;50.33;;;;;;;2.41;100.00;101049.31;4947727;29;20035;-88
2022/01/20 04:18:13;;;;;;;79.93;48.13;;;;;;;2.34;100.00;101047.19;4930051;29;20036;-87
2022/01/20 04:20:40;;;;;;;81.93;48.38;;;;;;;2.44;100.00;101043.03;4944183;29;20393;-87
2022/01/20 04:23:06;;;;;;;79.90;47.55;;;;;;;2.72;100.00;101042.13;4944665;29;20047;-88
2022/01/20 04:25:32;;;;;;;74.50;44.20;;;;;;;2.86;100.00;101044.66;4948248;29;20042;-88
2022/01/20 04:28:16;;;;;;;70.88;43.95;;;;;;;2.62;100.00;101043.66;4980235;28;20083;-89
2022/01/20 04:30:54;;;;;;;70.13;42.97;;;;;;;2.66;100.00;101047.72;4947642;28;20033;-86
2022/01/20 04:33:35;;;;;;;70.75;43.35;;;;;;;2.82;100.00;101033.56;4945279;28;20054;-90
2022/01/20 04:36:02;;;;;;;69.80;42.03;;;;;;;2.73;100.00;101028.09;4966659;29;20110;-88
2022/01/20 04:38:28;;;;;;;70.72;42.33;;;;;;;2.75;100.00;101023.59;4965341;29;20070;-88
2022/01/20 04:40:54;;;;;;;67.03;42.05;;;;;;;2.57;100.00;101030.84;4947047;29;20043;-90
2022/01/20 04:43:31;;;;;;;75.38;44.53;;;;;;;2.67;100.00;101025.88;4962710;29;20023;-88
2022/01/20 04:59:47;;;;;;;75.07;43.35;;;;;;;2.44;100.00;101030.81;4945265;29;20063;-90
2022/01/20 05:02:13;;;;;;;78.82;46.65;;;;;;;2.36;100.00;101030.44;4944273;29;20027;-86
2022/01/20 05:04:52;;;;;;;77.93;45.17;;;;;;;2.44;100.00;101041.28;4959205;29;20054;-87
2022/01/20 05:07:39;;;;;;;76.53;46.08;;;;;;;2.41;100.00;101038.00;4927402;29;20086;-88
2022/01/20 05:10:10;;;;;;;75.95;46.13;;;;;;;2.52;100.00;101041.59;4935790;29;20119;-88
2022/01/20 05:13:02;;;;;;;79.32;46.20;;;;;;;2.60;100.00;101041.13;4937846;29;20122;-88
2022/01/20 05:15:25;;;;;;;75.68;46.55;;;;;;;2.62;100.00;101056.75;4962893;28;20031;-87
2022/01/20 05:17:53;;;;;;;79.78;47.22;;;;;;;2.67;100.00;101054.66;4942290;29;20039;-88
2022/01/20 05:20:20;;;;;;;80.68;47.50;;;;;;;2.64;100.00;101065.31;4930131;29;20050;-88
2022/01/20 05:22:47;;;;;;;81.60;47.88;;;;;;;2.55;100.00;101069.38;4924616;29;20027;-88
2022/01/20 05:25:22;;;;;;;80.47;46.65;;;;;;;2.41;100.00;101075.47;4965362;29;20039;-89
2022/01/20 05:27:48;;;;;;;;;;;;;;;2.41;100.00;101069.41;4967628;29;20047;-89
2022/01/20 05:30:33;;;;;;;79.57;47.40;;;;;;;2.43;100.00;101064.91;4972138;29;19918;-90
2022/01/20 05:33:21;;;;;;;80.80;48.47;;;;;;;2.35;100.00;101060.19;4956596;29;20363;-86
2022/01/20 05:35:49;;;;;;;84.63;49.00;;;;;;;2.40;100.00;101062.47;4948447;29;20043;-87
2022/01/20 05:38:15;;;;;;;82.88;49.10;;;;;;;2.41;100.00;101057.16;4945379;29;20054;-90
2022/01/20 05:40:49;;;;;;;63.50;37.08;;;;;;;2.36;100.00;101061.84;4918797;29;20055;-88
2022/01/20 05:43:22;;;;;;;87.03;51.42;;;;;;;2.37;100.00;101058.28;4949341;29;20417;-90
2022/01/20 05:45:56;;;;;;;90.10;50.30;;;;;;;2.40;100.00;101060.72;4947975;29;20039;-88
2022/01/20 05:48:33;;;;;;;100.65;52.50;;;;;;;2.37;100.00;101063.53;4966866;29;20484;-87
2022/01/20 05:51:31;;;;;;;87.05;50.97;;;;;;;2.46;100.00;101073.41;4928099;29;20076;-90
2022/01/20 05:53:56;;;;;;;86.78;51.45;;;;;;;2.41;100.00;101080.72;4921969;29;20032;-90
2022/01/20 05:56:25;;;;;;;88.97;50.15;;;;;;;2.51;100.00;101087.03;4930090;29;20423;-91
2022/01/20 05:58:54;;;;;;;88.95;50.00;;;;;;;2.47;100.00;101090.78;4927644;29;20043;-92
2022/01/20 06:01:20;;;;;;;82.20;48.22;;;;;;;2.55;100.00;101098.97;4929852;29;20032;-91
2022/01/20 06:03:45;;;;;;;89.10;50.03;;;;;;;2.69;100.00;101089.41;4934353;29;20038;-89
2022/01/20 06:06:21;;;;;;;88.55;51.33;;;;;;;2.54;100.00;101076.38;4923056;29;20572;-88
2022/01/20 06:08:51;;;;;;;90.47;50.63;;;;;;;2.43;100.00;101078.81;4930363;29;20493;-91
2022/01/20 06:11:18;;;;;;;94.45;49.65;;;;;;;2.53;100.00;101079.06;4928341;29;20389;-92
2022/01/20 06:13:49;;;;;;;93.50;51.63;;;;;;;2.41;100.00;101079.88;4928648;29;20040;-92
2022/01/20 06:16:16;;;;;;;90.57;50.22;;;;;;;2.47;100.00;101076.84;4924416;29;20039;-91
2022/01/20 06:18:46;;;;;;;96.15;51.90;;;;;;;2.42;100.00;101077.13;4945511;29;20145;-91
2022/01/20 06:21:15;;;;;;;95.20;52.45;;;;;;;2.37;100.00;101089.69;4919727;29;20036;-89
2022/01/20 06:23:40;;;;;;;97.15;52.22;;;;;;;2.33;100.00;101082.94;4922368;29;20071;-89
2022/01/20 06:26:06;;;;;;;99.10;53.33;;;;;;;2.32;100.00;101091.72;4919385;29;20106;-89
2022/01/20 06:28:35;;;;;;;93.10;52.40;;;;;;;2.37;100.00;101089.69;4919527;29;20043;-86
2022/01/20 06:31:02;;;;;;;91.22;52.35;;;;;;;2.36;100.00;101089.75;4919393;29;20054;-88
2022/01/20 06:33:28;;;;;;;91.03;51.80;;;;;;;2.34;100.00;101095.09;4923490;29;20051;-89
2022/01/20 06:35:56;;;;;;;96.18;52.47;;;;;;;2.40;100.00;101099.09;4923645;29;20036;-88
2022/01/20 06:38:23;;;;;;;96.03;54.42;;;;;;;2.46;100.00;101109.16;4939811;29;20179;-89
2022/01/20 06:40:53;;;;;;;90.38;51.40;;;;;;;2.58;100.00;101116.28;4925465;29;20055;-89
2022/01/20 06:43:19;;;;;;;93.40;51.05;;;;;;;2.62;100.00;101111.69;4946626;29;20561;-89
2022/01/20 06:45:46;;;;;;;95.57;51.85;;;;;;;2.68;100.00;101114.75;4944132;29;20043;-88
2022/01/20 06:48:17;;;;;;;87.75;50.55;;;;;;;2.68;100.00;101101.66;4932001;29;20398;-88
2022/01/20 06:51:02;;;;;;;95.57;50.85;;;;;;;2.62;100.00;101101.22;4943661;29;20413;-89
2022/01/20 06:53:28;;;;;;;95.43;51.83;;;;;;;2.67;100.00;101101.75;4928526;29;20036;-87
2022/01/20 06:55:54;;;;;;;93.70;50.35;;;;;;;2.73;100.00;101098.75;4928289;29;20060;-88
2022/01/20 06:58:27;;;;;;;102.07;55.72;;;;;;;2.68;100.00;101101.66;4947128;29;20116;-89
2022/01/20 07:00:52;;;;;;;101.80;54.65;;;;;;;2.74;100.00;101105.66;4928331;29;20039;-89
2022/01/20 07:03:18;;;;;;;96.18;52.03;;;;;;;2.79;100.00;101106.19;4942763;29;20028;-87
2022/01/20 07:05:44;;;;;;;93.00;54.10;;;;;;;2.78;100.00;101101.91;4923367;29;20028;-88
2022/01/20 07:08:09;;;;;;;93.47;52.95;;;;;;;2.81;100.00;101101.72;4922463;29;20041;-89
2022/01/20 07:10:35;;;;;;;93.18;53.50;;;;;;;2.85;100.00;101106.63;4922540;29;20565;-87
2022/01/20 07:13:01;;;;;;;100.95;55.85;;;;;;;2.97;100.00;101121.56;4925472;29;20102;-88
2022/01/20 07:15:26;;;;;;;91.88;52.50;;;;;;;2.93;100.00;101124.47;4941380;29;20038;-89
2022/01/20 07:17:53;;;;;;;106.03;55.10;;;;;;;3.00;100.00;101126.63;4923401;29;20099;-87
2022/01/20 07:20:23;;;;;;;98.80;56.47;;;;;;;3.02;100.00;101129.97;4923375;29;20036;-87
2022/01/20 07:23:01;;;;;;;112.25;57.70;;;;;;;3.08;100.00;101128.75;4929207;29;20050;-88
2022/01/20 07:25:28;;;;;;;103.65;57.63;;;;;;;3.11;100.00;101131.16;4923343;29;20624;-90
2022/01/20 07:28:02;;;;;;;111.80;57.80;;;;;;;3.15;100.00;101137.03;4924138;29;20024;-87
2022/01/20 07:30:30;;;;;;;107.38;57.88;;;;;;;3.18;100.00;101121.97;4931866;29;20038;-90
2022/01/20 07:32:55;;;;;;;112.07;59.63;;;;;;;3.26;100.00;101131.91;4922991;29;20076;-89
2022/01/20 07:35:22;;;;;;;113.35;59.20;;;;;;;3.34;100.00;101134.88;4921443;29;20482;-88
2022/01/20 07:37:48;;;;;;;122.05;61.40;;;;;;;3.37;100.00;101134.69;4922435;29;20043;-88
2022/01/20 07:40:14;;;;;;;119.97;60.20;;;;;;;3.37;100.00;101140.78;4923050;29;20486;-89
2022/01/20 07:42:43;;;;;;;116.90;60.60;;;;;;;3.54;100.00;101132.63;4937838;29;20090;-89
2022/01/20 07:45:17;;;;;;;135.05;63.10;;;;;;;3.59;100.00;101127.91;4904616;29;20028;-89
2022/01/20 07:47:50;;;;;;;130.60;63.53;;;;;;;3.46;100.00;101124.44;4899284;29;20120;-88
2022/01/20 07:50:16;;;;;;;145.95;69.18;;;;;;;3.46;100.00;101132.28;4938502;29;20110;-88
2022/01/20 07:52:41;;;;;;;169.57;73.97;;;;;;;3.54;100.00;101122.16;4937337;29;20066;-88
2022/01/20 07:55:07;;;;;;;170.15;72.70;;;;;;;3.49;100.00;101116.38;4921138;29;20040;-87
2022/01/20 07:57:36;;;;;;;186.48;76.82;;;;;;;3.68;100.00;101123.81;4922061;29;20493;-87
2022/01/20 08:00:04;;;;;;;177.50;74.13;;;;;;;3.65;100.00;101127.50;4924157;29;20177;-88
2022/01/20 08:02:41;;;;;;;206.57;78.00;;;;;;;3.61;100.00;101123.41;4938530;29;20047;-88
2022/01/20 08:05:08;;;;;;;225.68;81.18;;;;;;;3.62;100.00;101125.09;4921260;29;20047;-90
2022/01/20 08:07:34;;;;;;;277.73;87.72;;;;;;;3.64;100.00;101128.47;4920009;29;20082;-89
2022/01/20 08:10:00;;;;;;;262.92;90.97;;;;;;;3.62;100.00;101151.28;4920600;29;20067;-89
2022/01/20 08:12:27;;;;;;;269.95;89.78;;;;;;;3.58;100.00;101133.25;4937977;29;20165;-89
2022/01/20 08:15:02;;;;;;;275.20;91.70;;;;;;;3.63;100.00;101142.50;4920941;29;20067;-90
2022/01/20 08:17:47;;;;;;;286.55;93.18;;;;;;;3.65;100.00;101140.59;4920602;29;20036;-89
2022/01/20 08:20:14;;;;;;;289.20;93.75;;;;;;;3.69;100.00;101150.88;4922035;29;20036;-89
2022/01/20 08:22:41;;;;;;;297.05;97.13;;;;;;;3.62;100.00;101146.06;4921411;29;20035;-87
2022/01/20 08:25:12;;;;;;;328.13;101.05;;;;;;;3.64;100.00;101145.97;4937752;29;20382;-88
2022/01/20 08:27:38;;;;;;;350.38;101.85;;;;;;;3.65;100.00;101145.84;4934988;29;20122;-88
2022/01/20 08:30:10;;;;;;;359.00;104.25;;;;;;;3.75;100.00;101156.53;4937902;29;20020;-83
2022/01/20 08:32:36;;;;;;;341.13;101.43;;;;;;;3.70;100.00;101157.81;4940143;29;20168;-86
2022/01/20 08:35:23;;;;;;;342.90;102.03;;;;;;;3.71;100.00;101152.47;4956379;29;20039;-87
2022/01/20 08:37:55;;;;;;;354.15;101.38;;;;;;;3.85;100.00;101154.13;4940586;29;20374;-86
2022/01/20 08:40:22;;;;;;;323.45;98.55;;;;;;;3.95;100.00;101157.81;4937024;29;20042;-87
2022/01/20 08:42:50;;;;;;;340.90;102.35;;;;;;;3.97;100.00;101151.56;4935322;29;20039;-88
2022/01/20 08:45:18;;;;;;;339.92;101.68;;;;;;;4.01;100.00;101160.06;4901547;29;20028;-87
2022/01/20 08:47:44;;;;;;;337.48;101.53;;;;;;;3.96;100.00;101154.25;4917757;29;20040;-86
2022/01/20 08:50:11;;;;;;;327.65;100.45;;;;;;;4.03;100.00;101150.28;4901174;29;20064;-86
2022/01/20 08:52:38;;;;;;;333.15;101.43;;;;;;;4.05;100.00;101145.75;4901859;29;20475;-88
2022/01/20 08:55:05;;;;;;;324.52;97.72;;;;;;;3.99;100.00;101138.31;4901642;29;20036;-88
2022/01/20 08:57:49;;;;;;;298.77;96.72;;;;;;;4.01;100.00;101146.94;4901358;29;20449;-87
2022/01/20 09:00:16;;;;;;;265.90;89.95;;;;;;;4.01;100.00;101152.19;4910411;29;20130;-86
2022/01/20 09:02:52;;;;;;;251.38;85.78;;;;;;;4.01;100.00;101141.69;4915657;29;20036;-87
2022/01/20 09:05:19;;;;;;;241.05;83.22;;;;;;;4.00;100.00;101132.97;4900307;29;20446;-88
2022/01/20 09:08:02;;;;;;;240.23;80.63;;;;;;;4.00;100.00;101145.25;4917296;29;20482;-89
2022/01/20 09:10:36;;;;;;;237.98;83.70;;;;;;;4.08;100.00;101143.75;4934861;29;20038;-90
2022/01/20 09:15:47;;;;;;;247.70;81.82;;;;;;;4.12;100.00;101139.16;4935274;29;20036;-88
2022/01/20 09:18:35;;;;;;;266.73;84.20;;;;;;;4.26;100.00;101139.03;4934905;29;20447;-90
2022/01/20 09:21:00;;;;;;;232.30;82.82;;;;;;;4.28;100.00;101134.50;4935201;29;20122;-87
2022/01/20 09:23:27;;;;;;;257.20;86.63;;;;;;;4.31;100.00;101129.06;4934561;29;20036;-90
2022/01/20 09:25:54;;;;;;;382.60;96.63;;;;;;;4.46;100.00;101128.00;4935437;29;20048;-88
2022/01/20 09:28:20;;;;;;;276.17;89.75;;;;;;;4.40;100.00;101123.19;4935434;29;20031;-87
2022/01/20 09:30:46;;;;;;;275.20;88.20;;;;;;;4.41;100.00;101118.78;4926338;29;20091;-86
2022/01/20 09:33:26;;;;;;;299.77;90.93;;;;;;;4.53;100.00;101118.75;4901902;29;20036;-85
2022/01/20 09:35:51;;;;;;;287.33;91.45;;;;;;;4.46;100.00;101128.00;4910294;29;20443;-88
2022/01/20 09:38:17;;;;;;;344.45;95.32;;;;;;;4.50;100.00;101121.59;4915956;29;20028;-87
2022/01/20 09:40:43;;;;;;;292.77;96.20;;;;;;;4.52;100.00;101127.56;4907346;29;20043;-89
2022/01/20 09:43:14;;;;;;;301.73;93.78;;;;;;;4.67;100.00;101131.69;4909937;29;20040;-84
2022/01/20 09:45:40;;;;;;;315.83;95.40;;;;;;;4.63;100.00;101127.63;4923003;29;20028;-87
2022/01/20 09:48:06;;;;;;;314.67;101.25;;;;;;;4.60;100.00;101130.47;4909392;29;20119;-87
2022/01/20 09:50:52;;;;;;;328.23;99.75;;;;;;;4.75;100.00;101130.31;4925207;29;20042;-88
2022/01/20 09:53:43;;;;;;;318.98;97.57;;;;;;;4.69;100.00;101129.81;4911175;29;20043;-88
2022/01/20 09:56:28;;;;;;;307.63;99.43;;;;;;;4.58;100.00;101137.63;4924505;29;20532;-86
2022/01/20 09:58:53;;;;;;;313.92;98.72;;;;;;;4.76;100.00;101143.34;4908052;29;20039;-85
2022/01/20 10:01:38;;;;;;;321.23;98.50;;;;;;;4.76;100.00;101145.97;4911278;29;20032;-87
2022/01/20 10:04:05;;;;;;;314.63;100.45;;;;;;;4.72;100.00;101149.75;4909760;29;20028;-83
2022/01/20 10:06:31;;;;;;;283.58;93.07;;;;;;;4.76;100.00;101151.22;4906963;29;20032;-85
2022/01/20 10:09:09;;;;;;;252.88;81.88;;;;;;;4.74;100.00;101147.03;4911665;29;20039;-85
2022/01/20 10:11:54;;;;;;;247.15;82.60;;;;;;;4.65;100.00;101138.84;4929496;29;20032;-83
2022/01/20 10:14:51;;;;;;;224.40;80.07;;;;;;;4.45;100.00;101139.44;4928577;29;20126;-86
2022/01/20 10:17:35;;;;;;;244.02;83.90;;;;;;;4.41;100.00;101143.22;4930816;29;20043;-88
2022/01/20 10:20:05;;;;;;;245.88;87.05;;;;;;;4.37;100.00;101143.53;4917597;29;20043;-85
2022/01/20 10:22:37;;;;;;;249.10;84.80;;;;;;;4.44;100.00;101129.88;4922400;29;20094;-84
2022/01/20 10:25:25;;;;;;;280.35;88.13;;;;;;;4.73;100.00;101124.34;4930481;29;20064;-85
2022/01/20 10:27:57;;;;;;;205.57;66.72;;;;;;;4.77;100.00;101115.31;4918488;29;20048;-85
2022/01/20 10:30:27;;;;;;;267.05;89.63;;;;;;;4.76;100.00;101108.38;4920945;29;20050;-85
2022/01/20 10:32:59;;;;;;;291.42;94.75;;;;;;;4.87;100.00;101109.25;4952898;29;20039;-85
2022/01/20 10:35:34;;;;;;;302.10;95.68;;;;;;;4.94;100.00;101102.63;4937275;29;20043;-86
2022/01/20 10:38:16;;;;;;;314.45;97.22;;;;;;;5.07;100.00;101107.84;4937573;29;20133;-84
2022/01/20 10:41:00;;;;;;;306.58;98.20;;;;;;;5.07;100.00;101097.31;4939008;29;20047;-85
2022/01/20 10:43:34;;;;;;;298.77;96.97;;;;;;;5.12;100.00;101090.78;4940047;29;20032;-84
2022/01/20 10:46:22;;;;;;;302.38;98.90;;;;;;;5.24;100.00;101078.50;4930986;29;20059;-86
2022/01/20 10:49:00;;;;;;;310.67;100.60;;;;;;;5.39;100.00;101085.25;4938525;29;20804;-85
2022/01/20 10:51:27;;;;;;;322.98;96.72;;;;;;;5.42;100.00;101073.66;4938609;29;20417;-89
2022/01/20 10:54:03;;;;;;;290.77;94.63;;;;;;;5.60;100.00;101065.22;4904285;29;20048;-86
2022/01/20 10:56:50;;;;;;;287.88;94.38;;;;;;;5.67;100.00;101063.78;4913747;29;20040;-88
2022/01/20 10:59:16;;;;;;;281.52;95.22;;;;;;;5.85;100.00;101058.91;4918517;29;20035;-85
2022/01/20 11:01:42;;;;;;;261.92;92.05;;;;;;;5.81;100.00;101051.38;4912991;29;20052;-85
2022/01/20 11:04:09;;;;;;;254.48;91.75;;;;;;;5.94;100.00;101038.97;4928281;29;20119;-86
2022/01/20 11:06:36;;;;;;;246.57;90.57;;;;;;;5.85;100.00;101037.88;4910244;29;20047;-86
2022/01/20 11:09:21;;;;;;;230.13;87.72;;;;;;;6.10;100.00;101034.16;4919998;29;20020;-88
2022/01/20 11:12:12;;;;;;;221.00;84.32;;;;;;;6.53;100.00;101040.31;4924194;29;20067;-84
2022/01/20 11:15:08;;;;;;;215.18;83.55;;;;;;;6.65;100.00;101027.97;4924662;29;20119;-85
2022/01/20 11:17:35;;;;;;;201.68;81.43;;;;;;;6.73;100.00;101029.00;4909081;29;20036;-87
2022/01/20 11:20:10;;;;;;;197.40;79.85;;;;;;;6.95;100.00;101019.38;4910702;29;20036;-87
2022/01/20 11:22:37;;;;;;;184.23;74.88;;;;;;;7.24;100.00;101008.06;4914151;29;20040;-86
2022/01/20 11:25:13;;;;;;;187.40;75.45;;;;;;;7.31;100.00;101005.75;4909708;29;20036;-87
2022/01/20 11:28:09;;;;;;;175.50;72.20;;;;;;;7.25;100.00;101001.00;4913561;29;20048;-85
2022/01/20 11:30:59;;;;;;;154.40;65.28;;;;;;;7.49;100.00;101003.38;4907682;29;20036;-85
2022/01/20 11:33:43;;;;;;;144.07;60.10;;;;;;;7.06;100.00;100996.41;4954698;28;20102;-85
2022/01/20 11:36:31;;;;;;;141.23;59.15;;;;;;;7.06;100.00;100991.16;4937552;29;20027;-85
2022/01/20 11:39:03;;;;;;;125.53;54.30;;;;;;;7.06;100.00;100995.59;4935773;29;20032;-82
2022/01/20 11:41:43;;;;;;;109.88;46.22;;;;;;;6.73;100.00;100993.94;4921357;29;20087;-86
2022/01/20 11:44:26;;;;;;;86.50;40.03;;;;;;;6.57;100.00;100983.81;4937460;29;20031;-86
2022/01/20 11:47:03;;;;;;;92.03;40.40;;;;;;;6.57;100.00;100991.72;4937685;29;20482;-87
2022/01/20 11:49:38;;;;;;;87.90;40.03;;;;;;;6.50;100.00;100984.44;4920309;29;20056;-87
2022/01/20 11:52:04;;;;;;;71.85;33.05;;;;;;;6.53;100.00;100982.41;4938230;29;20027;-86
2022/01/20 11:54:38;;;;;;;61.90;29.10;;;;;;;6.54;100.00;100983.25;4937857;29;20036;-85
2022/01/20 11:57:05;;;;;;;58.15;27.55;;;;;;;6.57;100.00;100982.97;4937647;29;20505;-91
2022/01/20 11:59:43;;;;;;;67.05;28.02;;;;;;;6.59;100.00;100976.66;4939768;29;20083;-88
2022/01/20 12:02:10;;;;;;;60.75;27.83;;;;;;;6.65;100.00;100970.03;4936998;29;20058;-87
2022/01/20 12:04:39;;;;;;;64.22;30.08;;;;;;;6.56;100.00;100962.91;4919971;29;20122;-87
2022/01/20 12:07:26;;;;;;;70.00;30.85;;;;;;;6.59;100.00;100945.06;4919628;29;20083;-90
2022/01/20 12:09:51;;;;;;;64.70;29.38;;;;;;;6.64;100.00;100942.03;4936182;29;20043;-85
2022/01/20 12:12:26;;;;;;;61.35;29.55;;;;;;;6.69;100.00;100940.66;4936397;29;20036;-87
2022/01/20 12:14:52;;;;;;;63.47;28.08;;;;;;;6.71;100.00;100932.66;4936883;29;20075;-84
2022/01/20 12:17:18;;;;;;;55.90;26.38;;;;;;;6.71;100.00;100933.50;4937005;29;20035;-86
2022/01/20 12:19:53;;;;;;;50.78;24.83;;;;;;;6.84;100.00;100921.94;4938769;29;20044;-86
2022/01/20 12:22:43;;;;;;;48.00;24.33;;;;;;;6.73;100.00;100905.22;4916938;29;20067;-89
2022/01/20 12:25:42;;;;;;;47.30;22.00;;;;;;;6.67;100.00;100895.19;4925231;29;20032;-89
2022/01/20 12:28:15;;;;;;;48.50;24.30;;;;;;;6.71;100.00;100901.88;4927376;29;20048;-90
2022/01/20 12:30:50;;;;;;;43.67;21.25;;;;;;;6.98;100.00;100895.25;4937696;29;20040;-88
2022/01/20 12:33:27;;;;;;;50.72;23.23;;;;;;;6.92;100.00;100896.63;4922482;29;20039;-87
2022/01/20 12:40:11;;;;;;;44.95;21.77;;;;;;;6.65;100.00;100881.34;4960425;28;20089;-88